sensor_id;sensor_type;location;lat;lon;timestamp;P1;durP1;ratioP1;P2;durP2;ratioP2
73938;SDS011;62291;47.554;8.504;2022-09-28T00:00:25;3.42;;;0.90;;
73938;SDS011;62291;47.554;8.504;2022-09-28T00:02:53;5.63;;;1.17;;
73938;SDS011;62291;47.554;8.504;2022-09-28T00:05:21;5.38;;;1.05;;
73938;SDS011;62291;47.554;8.504;2022-09-28T00:07:50;6.18;;;1.40;;
73938;SDS011;62291;47.554;8.504;2022-09-28T00:10:20;3.55;;;1.05;;
73938;SDS011;62291;47.554;8.504;2022-09-28T00:12:47;6.82;;;1.30;;
73938;SDS011;62291;47.554;8.504;2022-09-28T00:15:19;3.10;;;0.93;;
73938;SDS011;62291;47.554;8.504;2022-09-28T00:17:45;3.95;;;0.95;;
73938;SDS011;62291;47.554;8.504;2022-09-28T00:20:11;5.20;;;1.00;;
73938;SDS011;62291;47.554;8.504;2022-09-28T00:22:37;4.25;;;0.80;;
73938;SDS011;62291;47.554;8.504;2022-09-28T00:25:04;4.32;;;1.10;;
73938;SDS011;62291;47.554;8.504;2022-09-28T00:27:31;3.72;;;0.85;;
73938;SDS011;62291;47.554;8.504;2022-09-28T00:29:57;3.50;;;0.80;;
73938;SDS011;62291;47.554;8.504;2022-09-28T00:32:22;5.18;;;1.08;;
73938;SDS011;62291;47.554;8.504;2022-09-28T00:34:49;5.35;;;1.15;;
73938;SDS011;62291;47.554;8.504;2022-09-28T00:37:16;2.95;;;1.20;;
73938;SDS011;62291;47.554;8.504;2022-09-28T00:39:46;6.03;;;1.10;;
73938;SDS011;62291;47.554;8.504;2022-09-28T00:42:13;3.40;;;0.90;;
73938;SDS011;62291;47.554;8.504;2022-09-28T00:44:56;3.20;;;1.08;;
73938;SDS011;62291;47.554;8.504;2022-09-28T00:52:44;3.08;;;0.88;;
73938;SDS011;62291;47.554;8.504;2022-09-28T00:55:12;3.88;;;0.98;;
73938;SDS011;62291;47.554;8.504;2022-09-28T00:57:42;5.22;;;1.00;;
73938;SDS011;62291;47.554;8.504;2022-09-28T01:00:11;5.88;;;1.02;;
73938;SDS011;62291;47.554;8.504;2022-09-28T01:02:37;3.25;;;0.80;;
73938;SDS011;62291;47.554;8.504;2022-09-28T01:05:04;3.38;;;0.90;;
73938;SDS011;62291;47.554;8.504;2022-09-28T01:07:31;4.18;;;0.90;;
73938;SDS011;62291;47.554;8.504;2022-09-28T01:09:58;3.10;;;0.85;;
73938;SDS011;62291;47.554;8.504;2022-09-28T01:12:24;3.33;;;0.63;;
73938;SDS011;62291;47.554;8.504;2022-09-28T01:14:50;2.65;;;0.60;;
73938;SDS011;62291;47.554;8.504;2022-09-28T01:17:19;3.50;;;0.80;;
73938;SDS011;62291;47.554;8.504;2022-09-28T01:23:00;2.38;;;0.70;;
73938;SDS011;62291;47.554;8.504;2022-09-28T01:30:43;2.17;;;0.73;;
73938;SDS011;62291;47.554;8.504;2022-09-28T01:33:14;5.10;;;0.82;;
73938;SDS011;62291;47.554;8.504;2022-09-28T01:35:49;6.68;;;0.70;;
73938;SDS011;62291;47.554;8.504;2022-09-28T01:38:22;4.93;;;0.90;;
73938;SDS011;62291;47.554;8.504;2022-09-28T01:40:53;2.28;;;0.60;;
73938;SDS011;62291;47.554;8.504;2022-09-28T01:43:24;5.13;;;0.80;;
73938;SDS011;62291;47.554;8.504;2022-09-28T01:45:53;4.47;;;1.00;;
73938;SDS011;62291;47.554;8.504;2022-09-28T01:48:34;2.60;;;0.60;;
73938;SDS011;62291;47.554;8.504;2022-09-28T01:51:04;4.70;;;0.80;;
73938;SDS011;62291;47.554;8.504;2022-09-28T01:53:39;6.32;;;0.80;;
73938;SDS011;62291;47.554;8.504;2022-09-28T01:56:30;3.55;;;0.90;;
73938;SDS011;62291;47.554;8.504;2022-09-28T01:59:18;2.22;;;1.00;;
73938;SDS011;62291;47.554;8.504;2022-09-28T02:04:44;2.33;;;1.13;;
73938;SDS011;62291;47.554;8.504;2022-09-28T02:10:22;5.32;;;0.85;;
73938;SDS011;62291;47.554;8.504;2022-09-28T02:12:54;3.35;;;0.98;;
73938;SDS011;62291;47.554;8.504;2022-09-28T02:15:34;2.28;;;0.80;;
73938;SDS011;62291;47.554;8.504;2022-09-28T02:18:06;3.97;;;0.70;;
73938;SDS011;62291;47.554;8.504;2022-09-28T02:20:33;3.88;;;0.70;;
73938;SDS011;62291;47.554;8.504;2022-09-28T02:23:02;2.92;;;0.65;;
73938;SDS011;62291;47.554;8.504;2022-09-28T02:25:29;2.97;;;0.68;;
73938;SDS011;62291;47.554;8.504;2022-09-28T02:28:07;3.00;;;0.85;;
73938;SDS011;62291;47.554;8.504;2022-09-28T02:30:36;4.22;;;0.70;;
73938;SDS011;62291;47.554;8.504;2022-09-28T02:33:07;2.40;;;0.65;;
73938;SDS011;62291;47.554;8.504;2022-09-28T02:35:45;3.50;;;0.75;;
73938;SDS011;62291;47.554;8.504;2022-09-28T02:38:14;4.60;;;0.80;;
73938;SDS011;62291;47.554;8.504;2022-09-28T02:40:40;3.33;;;0.90;;
73938;SDS011;62291;47.554;8.504;2022-09-28T02:43:14;2.28;;;0.75;;
73938;SDS011;62291;47.554;8.504;2022-09-28T02:51:39;3.92;;;0.80;;
73938;SDS011;62291;47.554;8.504;2022-09-28T03:02:29;4.63;;;1.10;;
73938;SDS011;62291;47.554;8.504;2022-09-28T03:07:51;1.48;;;0.70;;
73938;SDS011;62291;47.554;8.504;2022-09-28T03:12:54;2.78;;;0.90;;
73938;SDS011;62291;47.554;8.504;2022-09-28T03:17:57;3.83;;;0.90;;
73938;SDS011;62291;47.554;8.504;2022-09-28T03:20:24;2.85;;;0.70;;
73938;SDS011;62291;47.554;8.504;2022-09-28T03:22:51;2.22;;;0.73;;
73938;SDS011;62291;47.554;8.504;2022-09-28T03:25:17;2.13;;;0.68;;
73938;SDS011;62291;47.554;8.504;2022-09-28T03:27:42;4.47;;;0.80;;
73938;SDS011;62291;47.554;8.504;2022-09-28T03:30:09;2.53;;;0.70;;
73938;SDS011;62291;47.554;8.504;2022-09-28T03:32:36;4.15;;;0.70;;
73938;SDS011;62291;47.554;8.504;2022-09-28T03:35:02;3.08;;;0.80;;
73938;SDS011;62291;47.554;8.504;2022-09-28T03:37:29;1.65;;;0.60;;
73938;SDS011;62291;47.554;8.504;2022-09-28T03:39:54;1.73;;;0.80;;
73938;SDS011;62291;47.554;8.504;2022-09-28T03:42:20;1.50;;;0.70;;
73938;SDS011;62291;47.554;8.504;2022-09-28T03:44:46;1.60;;;0.68;;
73938;SDS011;62291;47.554;8.504;2022-09-28T03:47:12;1.80;;;0.80;;
73938;SDS011;62291;47.554;8.504;2022-09-28T03:49:39;3.35;;;1.20;;
73938;SDS011;62291;47.554;8.504;2022-09-28T03:52:05;4.78;;;1.00;;
73938;SDS011;62291;47.554;8.504;2022-09-28T03:54:31;2.92;;;1.05;;
73938;SDS011;62291;47.554;8.504;2022-09-28T03:56:56;3.28;;;0.60;;
73938;SDS011;62291;47.554;8.504;2022-09-28T03:59:22;3.33;;;1.05;;
73938;SDS011;62291;47.554;8.504;2022-09-28T04:01:48;2.60;;;0.77;;
73938;SDS011;62291;47.554;8.504;2022-09-28T04:04:14;3.83;;;0.90;;
73938;SDS011;62291;47.554;8.504;2022-09-28T04:06:40;1.25;;;0.50;;
73938;SDS011;62291;47.554;8.504;2022-09-28T04:09:06;2.58;;;0.70;;
73938;SDS011;62291;47.554;8.504;2022-09-28T04:11:32;2.28;;;0.63;;
73938;SDS011;62291;47.554;8.504;2022-09-28T04:14:01;3.22;;;0.70;;
73938;SDS011;62291;47.554;8.504;2022-09-28T04:16:26;3.90;;;0.50;;
73938;SDS011;62291;47.554;8.504;2022-09-28T04:18:52;2.08;;;0.50;;
73938;SDS011;62291;47.554;8.504;2022-09-28T04:21:18;1.88;;;0.80;;
73938;SDS011;62291;47.554;8.504;2022-09-28T04:23:44;2.25;;;0.60;;
73938;SDS011;62291;47.554;8.504;2022-09-28T04:26:15;1.52;;;0.43;;
73938;SDS011;62291;47.554;8.504;2022-09-28T04:28:45;1.38;;;0.52;;
73938;SDS011;62291;47.554;8.504;2022-09-28T04:31:35;1.23;;;0.50;;
73938;SDS011;62291;47.554;8.504;2022-09-28T04:34:21;1.40;;;0.47;;
73938;SDS011;62291;47.554;8.504;2022-09-28T04:36:47;1.45;;;0.50;;
73938;SDS011;62291;47.554;8.504;2022-09-28T04:39:14;2.22;;;0.40;;
73938;SDS011;62291;47.554;8.504;2022-09-28T04:41:41;3.33;;;0.90;;
73938;SDS011;62291;47.554;8.504;2022-09-28T04:44:07;3.95;;;0.50;;
73938;SDS011;62291;47.554;8.504;2022-09-28T04:46:33;3.05;;;0.40;;
73938;SDS011;62291;47.554;8.504;2022-09-28T04:48:59;0.70;;;0.50;;
73938;SDS011;62291;47.554;8.504;2022-09-28T04:51:25;1.42;;;0.43;;
73938;SDS011;62291;47.554;8.504;2022-09-28T04:53:51;0.60;;;0.30;;
73938;SDS011;62291;47.554;8.504;2022-09-28T04:56:17;1.17;;;0.45;;
73938;SDS011;62291;47.554;8.504;2022-09-28T04:58:43;1.67;;;0.30;;
73938;SDS011;62291;47.554;8.504;2022-09-28T05:01:13;2.42;;;0.60;;
73938;SDS011;62291;47.554;8.504;2022-09-28T05:03:41;1.80;;;0.57;;
73938;SDS011;62291;47.554;8.504;2022-09-28T05:06:07;0.30;;;0.20;;
73938;SDS011;62291;47.554;8.504;2022-09-28T05:08:33;1.48;;;0.30;;
73938;SDS011;62291;47.554;8.504;2022-09-28T05:11:00;1.17;;;0.35;;
73938;SDS011;62291;47.554;8.504;2022-09-28T05:13:32;1.07;;;0.30;;
73938;SDS011;62291;47.554;8.504;2022-09-28T05:16:04;2.90;;;0.35;;
73938;SDS011;62291;47.554;8.504;2022-09-28T05:18:30;0.73;;;0.30;;
73938;SDS011;62291;47.554;8.504;2022-09-28T05:20:56;2.33;;;0.40;;
73938;SDS011;62291;47.554;8.504;2022-09-28T05:23:22;0.57;;;0.20;;
73938;SDS011;62291;47.554;8.504;2022-09-28T05:25:47;1.38;;;0.28;;
73938;SDS011;62291;47.554;8.504;2022-09-28T05:28:13;0.40;;;0.20;;
73938;SDS011;62291;47.554;8.504;2022-09-28T05:30:38;1.38;;;0.28;;
73938;SDS011;62291;47.554;8.504;2022-09-28T05:33:04;0.65;;;0.20;;
73938;SDS011;62291;47.554;8.504;2022-09-28T05:35:30;0.60;;;0.28;;
73938;SDS011;62291;47.554;8.504;2022-09-28T05:37:56;2.45;;;0.20;;
73938;SDS011;62291;47.554;8.504;2022-09-28T05:40:26;1.02;;;0.30;;
73938;SDS011;62291;47.554;8.504;2022-09-28T05:42:52;0.68;;;0.30;;
73938;SDS011;62291;47.554;8.504;2022-09-28T05:45:17;1.35;;;0.20;;
73938;SDS011;62291;47.554;8.504;2022-09-28T05:47:43;1.20;;;0.30;;
73938;SDS011;62291;47.554;8.504;2022-09-28T05:50:10;1.48;;;0.20;;
73938;SDS011;62291;47.554;8.504;2022-09-28T05:52:36;1.75;;;0.30;;
73938;SDS011;62291;47.554;8.504;2022-09-28T05:55:03;0.32;;;0.20;;
73938;SDS011;62291;47.554;8.504;2022-09-28T05:57:29;0.90;;;0.20;;
73938;SDS011;62291;47.554;8.504;2022-09-28T05:59:55;0.55;;;0.20;;
73938;SDS011;62291;47.554;8.504;2022-09-28T06:02:21;1.10;;;0.30;;
73938;SDS011;62291;47.554;8.504;2022-09-28T06:04:46;1.35;;;0.25;;
73938;SDS011;62291;47.554;8.504;2022-09-28T06:07:15;0.40;;;0.20;;
73938;SDS011;62291;47.554;8.504;2022-09-28T06:09:41;0.55;;;0.25;;
73938;SDS011;62291;47.554;8.504;2022-09-28T06:12:07;0.88;;;0.22;;
73938;SDS011;62291;47.554;8.504;2022-09-28T06:14:32;1.65;;;0.20;;
73938;SDS011;62291;47.554;8.504;2022-09-28T06:16:58;1.55;;;0.20;;
73938;SDS011;62291;47.554;8.504;2022-09-28T06:19:24;0.95;;;0.28;;
73938;SDS011;62291;47.554;8.504;2022-09-28T06:21:49;0.82;;;0.20;;
73938;SDS011;62291;47.554;8.504;2022-09-28T06:24:15;1.15;;;0.20;;
73938;SDS011;62291;47.554;8.504;2022-09-28T06:26:40;2.28;;;0.30;;
73938;SDS011;62291;47.554;8.504;2022-09-28T06:29:06;0.40;;;0.30;;
73938;SDS011;62291;47.554;8.504;2022-09-28T06:31:32;1.05;;;0.43;;
73938;SDS011;62291;47.554;8.504;2022-09-28T06:33:57;2.33;;;1.30;;
73938;SDS011;62291;47.554;8.504;2022-09-28T06:36:27;1.95;;;0.80;;
73938;SDS011;62291;47.554;8.504;2022-09-28T06:38:55;1.45;;;0.52;;
73938;SDS011;62291;47.554;8.504;2022-09-28T06:41:21;1.15;;;0.40;;
73938;SDS011;62291;47.554;8.504;2022-09-28T06:43:47;0.40;;;0.20;;
73938;SDS011;62291;47.554;8.504;2022-09-28T06:46:13;0.70;;;0.30;;
73938;SDS011;62291;47.554;8.504;2022-09-28T06:48:38;0.57;;;0.30;;
73938;SDS011;62291;47.554;8.504;2022-09-28T06:51:04;1.15;;;0.47;;
73938;SDS011;62291;47.554;8.504;2022-09-28T06:53:30;0.40;;;0.30;;
73938;SDS011;62291;47.554;8.504;2022-09-28T06:55:56;1.13;;;0.30;;
73938;SDS011;62291;47.554;8.504;2022-09-28T06:58:22;0.35;;;0.28;;
73938;SDS011;62291;47.554;8.504;2022-09-28T07:00:50;0.52;;;0.30;;
73938;SDS011;62291;47.554;8.504;2022-09-28T07:03:17;0.82;;;0.35;;
73938;SDS011;62291;47.554;8.504;2022-09-28T07:05:46;2.80;;;0.47;;
73938;SDS011;62291;47.554;8.504;2022-09-28T07:08:14;0.65;;;0.50;;
73938;SDS011;62291;47.554;8.504;2022-09-28T07:10:45;0.50;;;0.32;;
73938;SDS011;62291;47.554;8.504;2022-09-28T07:13:12;2.17;;;0.40;;
73938;SDS011;62291;47.554;8.504;2022-09-28T07:15:39;0.88;;;0.30;;
73938;SDS011;62291;47.554;8.504;2022-09-28T07:18:06;0.50;;;0.32;;
73938;SDS011;62291;47.554;8.504;2022-09-28T07:20:33;3.47;;;0.40;;
73938;SDS011;62291;47.554;8.504;2022-09-28T07:23:00;1.77;;;0.30;;
73938;SDS011;62291;47.554;8.504;2022-09-28T07:25:28;0.77;;;0.30;;
73938;SDS011;62291;47.554;8.504;2022-09-28T07:27:55;1.50;;;0.30;;
73938;SDS011;62291;47.554;8.504;2022-09-28T07:30:23;0.68;;;0.30;;
73938;SDS011;62291;47.554;8.504;2022-09-28T07:32:51;1.75;;;0.45;;
73938;SDS011;62291;47.554;8.504;2022-09-28T07:35:17;2.58;;;0.40;;
73938;SDS011;62291;47.554;8.504;2022-09-28T07:37:43;0.45;;;0.30;;
73938;SDS011;62291;47.554;8.504;2022-09-28T07:40:09;2.13;;;0.30;;
73938;SDS011;62291;47.554;8.504;2022-09-28T07:42:53;1.27;;;0.22;;
73938;SDS011;62291;47.554;8.504;2022-09-28T07:45:19;1.95;;;0.35;;
73938;SDS011;62291;47.554;8.504;2022-09-28T07:47:47;0.63;;;0.30;;
73938;SDS011;62291;47.554;8.504;2022-09-28T07:50:13;2.33;;;0.50;;
73938;SDS011;62291;47.554;8.504;2022-09-28T07:52:39;1.20;;;0.57;;
73938;SDS011;62291;47.554;8.504;2022-09-28T07:55:05;1.33;;;0.90;;
73938;SDS011;62291;47.554;8.504;2022-09-28T07:57:31;1.60;;;1.45;;
73938;SDS011;62291;47.554;8.504;2022-09-28T08:00:00;2.83;;;1.63;;
73938;SDS011;62291;47.554;8.504;2022-09-28T08:02:28;1.67;;;0.90;;
73938;SDS011;62291;47.554;8.504;2022-09-28T08:04:56;1.65;;;0.73;;
73938;SDS011;62291;47.554;8.504;2022-09-28T08:07:22;0.60;;;0.40;;
73938;SDS011;62291;47.554;8.504;2022-09-28T08:09:49;0.45;;;0.20;;
73938;SDS011;62291;47.554;8.504;2022-09-28T08:12:15;0.50;;;0.30;;
73938;SDS011;62291;47.554;8.504;2022-09-28T08:14:43;1.50;;;0.63;;
73938;SDS011;62291;47.554;8.504;2022-09-28T08:17:09;0.65;;;0.20;;
73938;SDS011;62291;47.554;8.504;2022-09-28T08:19:35;0.88;;;0.30;;
73938;SDS011;62291;47.554;8.504;2022-09-28T08:22:20;0.68;;;0.10;;
73938;SDS011;62291;47.554;8.504;2022-09-28T08:24:46;0.45;;;0.20;;
73938;SDS011;62291;47.554;8.504;2022-09-28T08:27:13;1.27;;;0.20;;
73938;SDS011;62291;47.554;8.504;2022-09-28T08:29:40;0.20;;;0.13;;
73938;SDS011;62291;47.554;8.504;2022-09-28T08:32:07;0.70;;;0.20;;
73938;SDS011;62291;47.554;8.504;2022-09-28T08:34:34;0.57;;;0.15;;
73938;SDS011;62291;47.554;8.504;2022-09-28T08:37:04;0.63;;;0.20;;
73938;SDS011;62291;47.554;8.504;2022-09-28T08:39:31;1.33;;;0.30;;
73938;SDS011;62291;47.554;8.504;2022-09-28T08:44:58;0.68;;;0.25;;
73938;SDS011;62291;47.554;8.504;2022-09-28T08:47:36;0.70;;;0.10;;
73938;SDS011;62291;47.554;8.504;2022-09-28T08:50:30;1.38;;;0.30;;
73938;SDS011;62291;47.554;8.504;2022-09-28T08:52:58;0.77;;;0.20;;
73938;SDS011;62291;47.554;8.504;2022-09-28T08:55:36;0.93;;;0.20;;
73938;SDS011;62291;47.554;8.504;2022-09-28T08:58:26;1.38;;;0.20;;
73938;SDS011;62291;47.554;8.504;2022-09-28T09:00:54;0.45;;;0.20;;
73938;SDS011;62291;47.554;8.504;2022-09-28T09:03:20;0.98;;;0.43;;
73938;SDS011;62291;47.554;8.504;2022-09-28T09:19:13;0.85;;;0.22;;
73938;SDS011;62291;47.554;8.504;2022-09-28T09:21:45;0.50;;;0.20;;
73938;SDS011;62291;47.554;8.504;2022-09-28T09:24:24;0.73;;;0.20;;
73938;SDS011;62291;47.554;8.504;2022-09-28T09:27:04;1.00;;;0.20;;
73938;SDS011;62291;47.554;8.504;2022-09-28T09:29:43;0.82;;;0.20;;
73938;SDS011;62291;47.554;8.504;2022-09-28T09:38:54;0.80;;;0.20;;
73938;SDS011;62291;47.554;8.504;2022-09-28T09:49:29;0.60;;;0.20;;
73938;SDS011;62291;47.554;8.504;2022-09-28T09:52:21;0.55;;;0.20;;
73938;SDS011;62291;47.554;8.504;2022-09-28T09:55:00;1.05;;;0.30;;
73938;SDS011;62291;47.554;8.504;2022-09-28T10:00:15;1.60;;;0.30;;
73938;SDS011;62291;47.554;8.504;2022-09-28T10:02:42;0.80;;;0.40;;
73938;SDS011;62291;47.554;8.504;2022-09-28T10:10:27;1.00;;;0.30;;
73938;SDS011;62291;47.554;8.504;2022-09-28T10:12:55;1.17;;;0.30;;
73938;SDS011;62291;47.554;8.504;2022-09-28T10:15:23;0.88;;;0.30;;
73938;SDS011;62291;47.554;8.504;2022-09-28T10:17:50;0.35;;;0.20;;
73938;SDS011;62291;47.554;8.504;2022-09-28T10:20:17;0.98;;;0.30;;
73938;SDS011;62291;47.554;8.504;2022-09-28T10:22:42;0.57;;;0.30;;
73938;SDS011;62291;47.554;8.504;2022-09-28T10:25:08;0.90;;;0.40;;
73938;SDS011;62291;47.554;8.504;2022-09-28T10:27:37;0.65;;;0.30;;
73938;SDS011;62291;47.554;8.504;2022-09-28T10:35:18;3.28;;;0.40;;
73938;SDS011;62291;47.554;8.504;2022-09-28T10:40:38;5.03;;;2.17;;
73938;SDS011;62291;47.554;8.504;2022-09-28T10:46:09;1.30;;;0.68;;
73938;SDS011;62291;47.554;8.504;2022-09-28T10:51:43;2.03;;;0.60;;
73938;SDS011;62291;47.554;8.504;2022-09-28T10:54:15;1.92;;;0.68;;
73938;SDS011;62291;47.554;8.504;2022-09-28T10:56:45;1.95;;;0.40;;
73938;SDS011;62291;47.554;8.504;2022-09-28T11:01:53;1.52;;;0.40;;
73938;SDS011;62291;47.554;8.504;2022-09-28T11:04:26;1.90;;;0.50;;
73938;SDS011;62291;47.554;8.504;2022-09-28T11:06:54;4.68;;;0.50;;
73938;SDS011;62291;47.554;8.504;2022-09-28T11:09:29;1.52;;;0.43;;
73938;SDS011;62291;47.554;8.504;2022-09-28T11:12:03;1.95;;;0.40;;
73938;SDS011;62291;47.554;8.504;2022-09-28T11:14:37;1.00;;;0.40;;
73938;SDS011;62291;47.554;8.504;2022-09-28T11:17:14;1.48;;;0.35;;
73938;SDS011;62291;47.554;8.504;2022-09-28T11:19:50;2.78;;;0.70;;
73938;SDS011;62291;47.554;8.504;2022-09-28T11:27:41;1.50;;;0.40;;
73938;SDS011;62291;47.554;8.504;2022-09-28T11:31:01;1.00;;;0.40;;
73938;SDS011;62291;47.554;8.504;2022-09-28T11:38:30;2.15;;;0.70;;
73938;SDS011;62291;47.554;8.504;2022-09-28T11:46:22;1.60;;;0.50;;
73938;SDS011;62291;47.554;8.504;2022-09-28T11:51:51;1.38;;;0.60;;
73938;SDS011;62291;47.554;8.504;2022-09-28T11:54:25;1.77;;;0.98;;
73938;SDS011;62291;47.554;8.504;2022-09-28T11:56:57;3.03;;;1.55;;
73938;SDS011;62291;47.554;8.504;2022-09-28T11:59:30;2.70;;;1.63;;
73938;SDS011;62291;47.554;8.504;2022-09-28T12:02:44;3.40;;;2.25;;
73938;SDS011;62291;47.554;8.504;2022-09-28T12:05:11;2.95;;;1.23;;
73938;SDS011;62291;47.554;8.504;2022-09-28T12:07:48;1.75;;;0.70;;
73938;SDS011;62291;47.554;8.504;2022-09-28T12:10:20;1.70;;;0.50;;
73938;SDS011;62291;47.554;8.504;2022-09-28T12:12:59;1.73;;;0.40;;
73938;SDS011;62291;47.554;8.504;2022-09-28T12:15:41;1.95;;;0.40;;
73938;SDS011;62291;47.554;8.504;2022-09-28T12:18:21;2.17;;;0.60;;
73938;SDS011;62291;47.554;8.504;2022-09-28T12:20:53;1.77;;;0.40;;
73938;SDS011;62291;47.554;8.504;2022-09-28T12:23:29;1.20;;;0.30;;
73938;SDS011;62291;47.554;8.504;2022-09-28T12:28:44;1.40;;;0.40;;
73938;SDS011;62291;47.554;8.504;2022-09-28T12:31:15;1.35;;;0.40;;
73938;SDS011;62291;47.554;8.504;2022-09-28T12:36:31;0.60;;;0.25;;
73938;SDS011;62291;47.554;8.504;2022-09-28T12:39:23;1.58;;;0.40;;
73938;SDS011;62291;47.554;8.504;2022-09-28T12:42:20;3.92;;;1.17;;
73938;SDS011;62291;47.554;8.504;2022-09-28T12:50:34;1.80;;;0.30;;
73938;SDS011;62291;47.554;8.504;2022-09-28T13:09:24;1.75;;;0.30;;
73938;SDS011;62291;47.554;8.504;2022-09-28T13:25:39;1.20;;;0.38;;
73938;SDS011;62291;47.554;8.504;2022-09-28T13:28:12;0.73;;;0.22;;
73938;SDS011;62291;47.554;8.504;2022-09-28T13:30:40;1.67;;;0.88;;
73938;SDS011;62291;47.554;8.504;2022-09-28T13:33:12;0.90;;;0.30;;
73938;SDS011;62291;47.554;8.504;2022-09-28T13:35:43;1.95;;;0.38;;
73938;SDS011;62291;47.554;8.504;2022-09-28T13:43:32;2.75;;;0.30;;
73938;SDS011;62291;47.554;8.504;2022-09-28T13:46:29;1.00;;;0.22;;
73938;SDS011;62291;47.554;8.504;2022-09-28T13:55:17;0.82;;;0.25;;
73938;SDS011;62291;47.554;8.504;2022-09-28T14:00:30;1.05;;;0.40;;
73938;SDS011;62291;47.554;8.504;2022-09-28T14:03:02;0.77;;;0.20;;
73938;SDS011;62291;47.554;8.504;2022-09-28T14:08:29;1.00;;;0.43;;
73938;SDS011;62291;47.554;8.504;2022-09-28T14:16:36;0.90;;;0.40;;
73938;SDS011;62291;47.554;8.504;2022-09-28T14:29:35;1.95;;;0.30;;
73938;SDS011;62291;47.554;8.504;2022-09-28T14:34:40;0.55;;;0.20;;
73938;SDS011;62291;47.554;8.504;2022-09-28T14:37:19;1.70;;;0.40;;
73938;SDS011;62291;47.554;8.504;2022-09-28T14:40:19;1.50;;;0.28;;
73938;SDS011;62291;47.554;8.504;2022-09-28T14:43:34;0.93;;;0.30;;
73938;SDS011;62291;47.554;8.504;2022-09-28T14:54:02;0.70;;;0.30;;
73938;SDS011;62291;47.554;8.504;2022-09-28T14:56:44;0.90;;;0.30;;
73938;SDS011;62291;47.554;8.504;2022-09-28T14:59:26;1.50;;;0.70;;
73938;SDS011;62291;47.554;8.504;2022-09-28T15:02:04;3.22;;;1.52;;
73938;SDS011;62291;47.554;8.504;2022-09-28T15:04:32;2.17;;;1.05;;
73938;SDS011;62291;47.554;8.504;2022-09-28T15:07:03;2.88;;;0.90;;
73938;SDS011;62291;47.554;8.504;2022-09-28T15:09:35;1.88;;;0.60;;
73938;SDS011;62291;47.554;8.504;2022-09-28T15:14:41;2.60;;;0.55;;
73938;SDS011;62291;47.554;8.504;2022-09-28T15:17:10;1.35;;;0.40;;
73938;SDS011;62291;47.554;8.504;2022-09-28T15:19:42;0.80;;;0.22;;
73938;SDS011;62291;47.554;8.504;2022-09-28T15:22:19;1.23;;;0.40;;
73938;SDS011;62291;47.554;8.504;2022-09-28T15:24:53;2.00;;;0.50;;
73938;SDS011;62291;47.554;8.504;2022-09-28T15:27:23;3.15;;;0.40;;
73938;SDS011;62291;47.554;8.504;2022-09-28T15:30:00;1.95;;;0.43;;
73938;SDS011;62291;47.554;8.504;2022-09-28T15:32:49;1.15;;;0.30;;
73938;SDS011;62291;47.554;8.504;2022-09-28T15:35:18;1.20;;;0.50;;
73938;SDS011;62291;47.554;8.504;2022-09-28T15:37:49;1.45;;;0.60;;
73938;SDS011;62291;47.554;8.504;2022-09-28T15:40:36;3.15;;;1.92;;
73938;SDS011;62291;47.554;8.504;2022-09-28T15:43:23;1.40;;;0.45;;
73938;SDS011;62291;47.554;8.504;2022-09-28T15:45:56;1.00;;;0.50;;
73938;SDS011;62291;47.554;8.504;2022-09-28T15:48:29;1.52;;;0.70;;
73938;SDS011;62291;47.554;8.504;2022-09-28T15:51:00;2.85;;;0.57;;
73938;SDS011;62291;47.554;8.504;2022-09-28T15:53:34;2.50;;;0.90;;
73938;SDS011;62291;47.554;8.504;2022-09-28T15:56:05;3.35;;;0.82;;
73938;SDS011;62291;47.554;8.504;2022-09-28T15:58:34;3.55;;;0.90;;
73938;SDS011;62291;47.554;8.504;2022-09-28T16:03:53;1.50;;;0.60;;
73938;SDS011;62291;47.554;8.504;2022-09-28T16:06:19;1.85;;;0.73;;
73938;SDS011;62291;47.554;8.504;2022-09-28T16:08:45;2.80;;;0.75;;
73938;SDS011;62291;47.554;8.504;2022-09-28T16:11:19;3.40;;;0.70;;
73938;SDS011;62291;47.554;8.504;2022-09-28T16:13:55;2.10;;;0.70;;
73938;SDS011;62291;47.554;8.504;2022-09-28T16:16:32;1.98;;;0.70;;
73938;SDS011;62291;47.554;8.504;2022-09-28T16:19:12;2.85;;;0.68;;
73938;SDS011;62291;47.554;8.504;2022-09-28T16:21:56;2.85;;;0.50;;
73938;SDS011;62291;47.554;8.504;2022-09-28T16:24:32;2.44;;;0.70;;
73938;SDS011;62291;47.554;8.504;2022-09-28T16:27:01;2.00;;;0.63;;
73938;SDS011;62291;47.554;8.504;2022-09-28T16:29:35;2.35;;;0.77;;
73938;SDS011;62291;47.554;8.504;2022-09-28T16:37:34;3.97;;;0.93;;
73938;SDS011;62291;47.554;8.504;2022-09-28T16:40:01;3.63;;;1.33;;
73938;SDS011;62291;47.554;8.504;2022-09-28T16:42:27;4.85;;;1.25;;
73938;SDS011;62291;47.554;8.504;2022-09-28T16:44:53;4.05;;;1.50;;
73938;SDS011;62291;47.554;8.504;2022-09-28T16:47:20;3.45;;;1.35;;
73938;SDS011;62291;47.554;8.504;2022-09-28T16:49:48;2.70;;;1.02;;
73938;SDS011;62291;47.554;8.504;2022-09-28T16:52:15;2.58;;;1.15;;
73938;SDS011;62291;47.554;8.504;2022-09-28T16:55:01;2.20;;;1.20;;
73938;SDS011;62291;47.554;8.504;2022-09-28T16:57:45;3.63;;;1.20;;
73938;SDS011;62291;47.554;8.504;2022-09-28T17:00:17;3.03;;;1.70;;
73938;SDS011;62291;47.554;8.504;2022-09-28T17:02:46;3.30;;;1.73;;
73938;SDS011;62291;47.554;8.504;2022-09-28T17:05:15;3.25;;;1.90;;
73938;SDS011;62291;47.554;8.504;2022-09-28T17:07:44;4.00;;;2.10;;
73938;SDS011;62291;47.554;8.504;2022-09-28T17:10:42;4.63;;;2.40;;
73938;SDS011;62291;47.554;8.504;2022-09-28T17:13:09;4.13;;;2.38;;
73938;SDS011;62291;47.554;8.504;2022-09-28T17:15:36;5.65;;;2.42;;
73938;SDS011;62291;47.554;8.504;2022-09-28T17:18:04;4.15;;;2.92;;
73938;SDS011;62291;47.554;8.504;2022-09-28T17:20:30;4.43;;;2.72;;
73938;SDS011;62291;47.554;8.504;2022-09-28T17:22:57;4.07;;;3.08;;
73938;SDS011;62291;47.554;8.504;2022-09-28T17:25:23;6.25;;;3.30;;
73938;SDS011;62291;47.554;8.504;2022-09-28T17:27:51;5.70;;;3.63;;
73938;SDS011;62291;47.554;8.504;2022-09-28T17:30:20;7.82;;;4.53;;
73938;SDS011;62291;47.554;8.504;2022-09-28T17:32:47;6.38;;;4.65;;
73938;SDS011;62291;47.554;8.504;2022-09-28T17:35:14;6.50;;;4.72;;
73938;SDS011;62291;47.554;8.504;2022-09-28T17:37:40;9.13;;;5.32;;
73938;SDS011;62291;47.554;8.504;2022-09-28T17:43:06;6.18;;;4.30;;
73938;SDS011;62291;47.554;8.504;2022-09-28T17:45:32;6.70;;;4.43;;
73938;SDS011;62291;47.554;8.504;2022-09-28T17:48:03;7.22;;;4.15;;
73938;SDS011;62291;47.554;8.504;2022-09-28T17:50:37;6.55;;;4.90;;
73938;SDS011;62291;47.554;8.504;2022-09-28T17:53:03;6.43;;;4.53;;
73938;SDS011;62291;47.554;8.504;2022-09-28T17:55:31;7.85;;;4.20;;
73938;SDS011;62291;47.554;8.504;2022-09-28T17:57:59;8.05;;;4.00;;
73938;SDS011;62291;47.554;8.504;2022-09-28T18:00:25;8.35;;;5.28;;
73938;SDS011;62291;47.554;8.504;2022-09-28T18:02:52;7.40;;;4.28;;
73938;SDS011;62291;47.554;8.504;2022-09-28T18:05:19;10.32;;;7.07;;
73938;SDS011;62291;47.554;8.504;2022-09-28T18:07:45;10.15;;;6.05;;
73938;SDS011;62291;47.554;8.504;2022-09-28T18:10:12;8.73;;;5.72;;
73938;SDS011;62291;47.554;8.504;2022-09-28T18:12:39;7.30;;;5.80;;
73938;SDS011;62291;47.554;8.504;2022-09-28T18:15:07;9.68;;;6.90;;
73938;SDS011;62291;47.554;8.504;2022-09-28T18:17:33;10.77;;;6.63;;
73938;SDS011;62291;47.554;8.504;2022-09-28T18:19:59;11.52;;;7.70;;
73938;SDS011;62291;47.554;8.504;2022-09-28T18:22:25;9.45;;;6.72;;
73938;SDS011;62291;47.554;8.504;2022-09-28T18:24:50;11.23;;;7.20;;
73938;SDS011;62291;47.554;8.504;2022-09-28T18:27:16;17.15;;;7.40;;
73938;SDS011;62291;47.554;8.504;2022-09-28T18:29:41;12.02;;;7.32;;
73938;SDS011;62291;47.554;8.504;2022-09-28T18:32:07;11.38;;;8.13;;
73938;SDS011;62291;47.554;8.504;2022-09-28T18:34:36;14.00;;;8.18;;
73938;SDS011;62291;47.554;8.504;2022-09-28T18:37:02;13.85;;;8.13;;
73938;SDS011;62291;47.554;8.504;2022-09-28T18:39:28;15.60;;;8.35;;
73938;SDS011;62291;47.554;8.504;2022-09-28T18:41:55;14.60;;;8.70;;